Time;durP1;ratioP1;P1;durP2;ratioP2;P2;SDS_P1;SDS_P2;PMS_P1;PMS_P2;Temp;Humidity;BMP_temperature;BMP_pressure;BME280_temperature;BME280_humidity;BME280_pressure;Samples;Min_cycle;Max_cycle;Signal;HPM_P1;HPM_P2
2023/08/23 00:01:06;;;;;;;0.63;0.63;;;;;;;;;;4973543;28;58378;-77
2023/08/23 00:03:32;;;;;;;0.85;0.75;;;;;;;;;;4975643;28;58726;-77
2023/08/23 00:05:57;;;;;;;1.02;0.90;;;;;;;;;;4975315;28;58540;-77
2023/08/23 00:08:22;;;;;;;1.47;0.73;;;;;;;;;;4975985;28;59400;-77
2023/08/23 00:10:52;;;;;;;0.60;0.60;;;;;;;;;;4955132;28;59043;-73
2023/08/23 00:13:17;;;;;;;0.63;0.63;;;;;;;;;;4972695;28;58431;-75
2023/08/23 00:15:42;;;;;;;0.70;0.63;;;;;;;;;;4952025;28;59264;-74
2023/08/23 00:18:07;;;;;;;0.70;0.53;;;;;;;;;;4973404;28;59035;-73
2023/08/23 00:20:32;;;;;;;0.60;0.60;;;;;;;;;;4974613;28;58440;-74
2023/08/23 00:22:58;;;;;;;1.40;0.60;;;;;;;;;;4970694;28;58652;-74
2023/08/23 00:25:23;;;;;;;0.73;0.65;;;;;;;;;;4972938;28;58554;-74
2023/08/23 00:27:48;;;;;;;0.80;0.80;;;;;;;;;;4973252;28;58729;-74
2023/08/23 00:30:13;;;;;;;0.60;0.60;;;;;;;;;;4975843;28;59482;-74
2023/08/23 00:32:38;;;;;;;1.25;1.13;;;;;;;;;;4975613;28;58313;-73
2023/08/23 00:35:03;;;;;;;1.00;0.70;;;;;;;;;;4974618;28;58910;-74
2023/08/23 00:37:29;;;;;;;0.80;0.80;;;;;;;;;;4972317;28;59701;-74
2023/08/23 00:39:54;;;;;;;0.70;0.70;;;;;;;;;;4974935;28;58391;-74
2023/08/23 00:42:19;;;;;;;0.88;0.70;;;;;;;;;;4974211;28;59520;-74
2023/08/23 00:44:44;;;;;;;0.53;0.53;;;;;;;;;;4972567;28;58559;-74
2023/08/23 00:47:09;;;;;;;1.43;0.53;;;;;;;;;;4974525;28;58306;-74
2023/08/23 00:49:35;;;;;;;0.70;0.70;;;;;;;;;;4975917;28;58704;-74
2023/08/23 00:52:04;;;;;;;0.80;0.70;;;;;;;;;;4972787;28;58536;-74
2023/08/23 00:54:29;;;;;;;1.23;0.73;;;;;;;;;;4970802;28;58928;-73
2023/08/23 00:56:56;;;;;;;1.30;1.20;;;;;;;;;;4974804;28;59114;-74
2023/08/23 00:59:21;;;;;;;0.93;0.45;;;;;;;;;;4972678;28;58413;-75
2023/08/23 01:01:47;;;;;;;0.63;0.63;;;;;;;;;;4973255;28;58572;-74
2023/08/23 01:04:12;;;;;;;0.55;0.55;;;;;;;;;;4971583;28;58973;-74
2023/08/23 01:06:54;;;;;;;0.60;0.60;;;;;;;;;;4975111;28;58444;-74
2023/08/23 01:09:38;;;;;;;0.70;0.70;;;;;;;;;;4976395;28;58935;-74
2023/08/23 01:12:18;;;;;;;1.35;0.70;;;;;;;;;;4978575;28;58247;-73
2023/08/23 01:15:01;;;;;;;0.52;0.52;;;;;;;;;;4977925;28;60040;-74
2023/08/23 01:17:27;;;;;;;0.70;0.65;;;;;;;;;;4978285;28;58910;-73
2023/08/23 01:19:52;;;;;;;0.95;0.95;;;;;;;;;;4980019;28;58528;-74
2023/08/23 01:22:18;;;;;;;0.70;0.70;;;;;;;;;;4976168;28;58982;-75
2023/08/23 01:24:44;;;;;;;0.40;0.40;;;;;;;;;;4975075;28;58346;-74
2023/08/23 01:27:09;;;;;;;1.05;0.80;;;;;;;;;;4977154;28;57978;-74
2023/08/23 01:29:35;;;;;;;0.93;0.57;;;;;;;;;;4979292;28;59413;-73
2023/08/23 01:32:11;;;;;;;0.55;0.47;;;;;;;;;;4977598;28;58309;-75
2023/08/23 01:34:39;;;;;;;0.70;0.70;;;;;;;;;;4976599;28;59409;-74
2023/08/23 01:37:05;;;;;;;0.73;0.73;;;;;;;;;;4978063;28;58504;-74
2023/08/23 01:39:31;;;;;;;0.82;0.80;;;;;;;;;;4977731;28;58292;-74
2023/08/23 01:41:57;;;;;;;0.57;0.55;;;;;;;;;;4976139;28;59639;-74
2023/08/23 01:44:22;;;;;;;0.68;0.63;;;;;;;;;;4974712;28;58562;-74
2023/08/23 01:46:47;;;;;;;0.53;0.50;;;;;;;;;;4960230;28;58248;-74
2023/08/23 01:49:12;;;;;;;0.47;0.47;;;;;;;;;;4978877;28;59660;-74
2023/08/23 01:51:38;;;;;;;0.57;0.57;;;;;;;;;;4977202;28;58220;-75
2023/08/23 01:54:03;;;;;;;0.40;0.30;;;;;;;;;;4977684;28;58413;-74
2023/08/23 01:56:28;;;;;;;0.40;0.40;;;;;;;;;;4978032;28;58568;-74
2023/08/23 01:58:53;;;;;;;0.57;0.57;;;;;;;;;;4978072;28;58435;-74
2023/08/23 02:01:18;;;;;;;0.65;0.65;;;;;;;;;;4979122;28;59407;-74
2023/08/23 02:03:43;;;;;;;0.77;0.77;;;;;;;;;;4974572;28;59049;-74
2023/08/23 02:06:09;;;;;;;0.50;0.50;;;;;;;;;;4975839;28;58397;-74
2023/08/23 02:08:34;;;;;;;0.60;0.60;;;;;;;;;;4979345;28;58733;-74
2023/08/23 02:11:00;;;;;;;0.50;0.50;;;;;;;;;;4976810;28;58507;-73
2023/08/23 02:13:25;;;;;;;0.80;0.37;;;;;;;;;;4976615;28;59389;-74
2023/08/23 02:15:50;;;;;;;0.33;0.33;;;;;;;;;;4976916;28;58537;-74
2023/08/23 02:18:15;;;;;;;0.47;0.47;;;;;;;;;;4978009;28;58228;-74
2023/08/23 02:20:40;;;;;;;1.77;0.70;;;;;;;;;;4977172;28;58736;-74
2023/08/23 02:23:05;;;;;;;0.60;0.60;;;;;;;;;;4975281;28;59599;-74
2023/08/23 02:25:31;;;;;;;0.82;0.82;;;;;;;;;;4976807;28;58383;-74
2023/08/23 02:27:57;;;;;;;0.40;0.40;;;;;;;;;;4977407;28;58697;-74
2023/08/23 02:30:22;;;;;;;0.60;0.50;;;;;;;;;;4978500;28;58517;-74
2023/08/23 02:32:47;;;;;;;0.47;0.47;;;;;;;;;;4975901;28;57811;-76
2023/08/23 02:35:12;;;;;;;0.70;0.50;;;;;;;;;;4974003;28;58667;-76
2023/08/23 02:37:38;;;;;;;0.50;0.50;;;;;;;;;;4958975;28;58573;-77
2023/08/23 02:40:03;;;;;;;0.40;0.40;;;;;;;;;;4974760;28;59908;-77
2023/08/23 02:42:29;;;;;;;0.45;0.45;;;;;;;;;;4975286;28;58752;-77
2023/08/23 02:44:54;;;;;;;0.90;0.50;;;;;;;;;;4979829;28;58446;-76
2023/08/23 02:47:19;;;;;;;0.40;0.40;;;;;;;;;;4978042;28;59610;-77
2023/08/23 02:49:44;;;;;;;0.60;0.60;;;;;;;;;;4976361;28;58519;-76
2023/08/23 02:52:09;;;;;;;0.33;0.30;;;;;;;;;;4977882;28;58401;-77
2023/08/23 02:54:34;;;;;;;0.87;0.87;;;;;;;;;;4975141;28;58538;-77
2023/08/23 02:57:00;;;;;;;0.63;0.63;;;;;;;;;;4976230;28;58775;-77
2023/08/23 02:59:26;;;;;;;0.37;0.37;;;;;;;;;;4974809;28;58696;-76
2023/08/23 03:01:52;;;;;;;0.73;0.73;;;;;;;;;;4977590;28;58959;-76
2023/08/23 03:04:17;;;;;;;0.70;0.70;;;;;;;;;;4978198;28;58369;-76
2023/08/23 03:06:42;;;;;;;0.50;0.50;;;;;;;;;;4975666;28;59699;-76
2023/08/23 03:09:07;;;;;;;0.57;0.57;;;;;;;;;;4963067;28;61151;-76
2023/08/23 03:11:32;;;;;;;0.80;0.80;;;;;;;;;;4976657;28;58470;-77
2023/08/23 03:13:57;;;;;;;0.77;0.77;;;;;;;;;;4976998;28;59269;-76
2023/08/23 03:16:22;;;;;;;0.63;0.60;;;;;;;;;;4973917;28;58421;-78
2023/08/23 03:18:48;;;;;;;0.50;0.50;;;;;;;;;;4976136;28;58352;-77
2023/08/23 03:21:13;;;;;;;0.50;0.50;;;;;;;;;;4975693;28;58586;-77
2023/08/23 03:23:39;;;;;;;0.93;0.93;;;;;;;;;;4976566;28;58373;-76
2023/08/23 03:26:04;;;;;;;0.70;0.70;;;;;;;;;;4973368;28;59150;-77
2023/08/23 03:28:29;;;;;;;0.50;0.50;;;;;;;;;;4974687;28;58438;-77
2023/08/23 03:31:00;;;;;;;0.60;0.60;;;;;;;;;;4974825;28;58327;-77
2023/08/23 03:33:25;;;;;;;0.88;0.88;;;;;;;;;;4958959;28;58616;-77
2023/08/23 03:35:54;;;;;;;0.50;0.50;;;;;;;;;;4975320;28;59733;-76
2023/08/23 03:38:19;;;;;;;0.77;0.77;;;;;;;;;;4975558;28;58172;-77
2023/08/23 03:40:44;;;;;;;0.87;0.60;;;;;;;;;;4974532;28;58343;-74
2023/08/23 03:43:09;;;;;;;0.60;0.60;;;;;;;;;;4958647;28;58478;-74
2023/08/23 03:45:34;;;;;;;0.60;0.60;;;;;;;;;;4974885;28;58713;-74
2023/08/23 03:48:00;;;;;;;0.60;0.60;;;;;;;;;;4975104;28;59665;-75
2023/08/23 03:50:25;;;;;;;0.60;0.57;;;;;;;;;;4971730;28;58202;-75
2023/08/23 03:52:50;;;;;;;0.57;0.47;;;;;;;;;;4975960;28;58399;-74
2023/08/23 03:55:15;;;;;;;0.80;0.80;;;;;;;;;;4975687;28;58906;-74
2023/08/23 03:57:40;;;;;;;0.43;0.43;;;;;;;;;;4974440;28;58733;-74
2023/08/23 04:00:06;;;;;;;0.90;0.65;;;;;;;;;;4975487;28;59245;-74
2023/08/23 04:02:31;;;;;;;0.98;0.73;;;;;;;;;;4971336;28;58420;-73
2023/08/23 04:04:56;;;;;;;1.87;1.03;;;;;;;;;;4969916;28;59726;-74
2023/08/23 04:07:22;;;;;;;0.83;0.83;;;;;;;;;;4970990;28;59471;-74
2023/08/23 04:09:47;;;;;;;2.97;0.90;;;;;;;;;;4968360;28;58477;-74
2023/08/23 04:12:12;;;;;;;2.97;1.40;;;;;;;;;;4971383;28;59290;-75
2023/08/23 04:14:37;;;;;;;3.70;1.70;;;;;;;;;;4966077;28;58396;-75
2023/08/23 04:17:03;;;;;;;3.07;2.17;;;;;;;;;;4965532;28;58434;-74
2023/08/23 04:19:28;;;;;;;2.38;1.63;;;;;;;;;;4969631;28;59816;-74
2023/08/23 04:21:54;;;;;;;1.50;1.40;;;;;;;;;;4969125;28;58478;-74
2023/08/23 04:24:20;;;;;;;2.43;1.50;;;;;;;;;;4975807;28;59215;-75
2023/08/23 04:26:45;;;;;;;2.78;1.25;;;;;;;;;;4971583;28;58968;-74
2023/08/23 04:29:10;;;;;;;1.93;1.50;;;;;;;;;;4973180;28;58491;-73
2023/08/23 04:31:35;;;;;;;1.90;1.40;;;;;;;;;;4975942;28;58627;-74
2023/08/23 04:34:02;;;;;;;1.10;0.90;;;;;;;;;;4971487;28;59853;-74
2023/08/23 04:36:27;;;;;;;1.55;0.93;;;;;;;;;;4969735;28;58492;-72
2023/08/23 04:38:53;;;;;;;1.67;1.40;;;;;;;;;;4951065;28;61800;-73
2023/08/23 04:41:18;;;;;;;0.97;0.97;;;;;;;;;;4970361;28;58268;-68
2023/08/23 04:43:43;;;;;;;3.80;1.48;;;;;;;;;;4971324;28;58419;-68
2023/08/23 04:46:08;;;;;;;1.92;1.67;;;;;;;;;;4971301;28;58857;-69
2023/08/23 04:48:33;;;;;;;2.30;2.07;;;;;;;;;;4972386;28;58410;-68
2023/08/23 04:50:58;;;;;;;1.43;1.33;;;;;;;;;;4972743;28;59421;-75
2023/08/23 04:53:24;;;;;;;1.67;1.37;;;;;;;;;;4974276;28;59531;-75
2023/08/23 04:55:50;;;;;;;2.10;1.90;;;;;;;;;;4956445;28;58221;-75
2023/08/23 04:58:16;;;;;;;3.07;1.37;;;;;;;;;;4970430;28;60528;-74
2023/08/23 05:00:42;;;;;;;2.15;1.90;;;;;;;;;;4973009;28;59063;-73
2023/08/23 05:03:09;;;;;;;4.97;2.08;;;;;;;;;;4974444;28;58372;-77
2023/08/23 05:05:35;;;;;;;2.72;1.75;;;;;;;;;;4970956;28;58983;-75
2023/08/23 05:08:00;;;;;;;5.53;1.65;;;;;;;;;;4971996;28;58333;-75
2023/08/23 05:10:25;;;;;;;4.53;2.00;;;;;;;;;;4972816;28;59967;-75
2023/08/23 05:12:51;;;;;;;3.33;1.60;;;;;;;;;;4974366;28;58012;-74
2023/08/23 05:15:17;;;;;;;3.05;1.90;;;;;;;;;;4973844;28;58872;-75
2023/08/23 05:17:42;;;;;;;1.63;1.53;;;;;;;;;;4975999;28;58823;-75
2023/08/23 05:20:08;;;;;;;3.30;2.33;;;;;;;;;;4974780;28;59706;-75
2023/08/23 05:22:33;;;;;;;1.73;1.40;;;;;;;;;;4975203;28;58159;-75
2023/08/23 05:24:58;;;;;;;2.93;1.80;;;;;;;;;;4976291;28;59444;-75
2023/08/23 05:27:23;;;;;;;3.38;1.30;;;;;;;;;;4974199;28;58727;-75
2023/08/23 05:29:50;;;;;;;8.63;1.77;;;;;;;;;;4974967;28;58765;-75
2023/08/23 05:32:15;;;;;;;2.67;1.17;;;;;;;;;;4974619;28;60414;-75
2023/08/23 05:34:40;;;;;;;2.70;1.20;;;;;;;;;;4973197;28;58359;-75
2023/08/23 05:37:06;;;;;;;2.30;1.50;;;;;;;;;;4975393;28;58935;-75
2023/08/23 05:39:31;;;;;;;1.57;1.47;;;;;;;;;;4971412;28;58519;-75
2023/08/23 05:41:57;;;;;;;0.93;0.93;;;;;;;;;;4975292;28;58406;-75
2023/08/23 05:44:22;;;;;;;2.17;1.30;;;;;;;;;;4972334;28;58879;-75
2023/08/23 05:46:47;;;;;;;3.80;0.90;;;;;;;;;;4971003;28;58552;-75
2023/08/23 05:49:12;;;;;;;2.08;1.52;;;;;;;;;;4972109;28;58487;-75
2023/08/23 05:51:37;;;;;;;3.37;1.40;;;;;;;;;;4973519;28;58424;-75
2023/08/23 05:54:02;;;;;;;1.60;1.45;;;;;;;;;;4977107;28;58386;-75
2023/08/23 05:56:28;;;;;;;0.90;0.90;;;;;;;;;;4977376;28;59451;-75
2023/08/23 05:58:53;;;;;;;1.83;0.80;;;;;;;;;;4976736;28;60286;-76
2023/08/23 06:01:19;;;;;;;1.33;1.17;;;;;;;;;;4976550;28;58431;-75
2023/08/23 06:03:44;;;;;;;1.45;1.20;;;;;;;;;;4959440;28;59375;-75
2023/08/23 06:06:09;;;;;;;1.10;1.00;;;;;;;;;;4975172;28;58321;-75
2023/08/23 06:08:35;;;;;;;2.00;0.87;;;;;;;;;;4977307;28;58495;-75
2023/08/23 06:11:00;;;;;;;1.33;1.15;;;;;;;;;;4979353;28;58512;-75
2023/08/23 06:13:25;;;;;;;0.90;0.73;;;;;;;;;;4978152;28;58383;-75
2023/08/23 06:15:50;;;;;;;2.97;1.10;;;;;;;;;;4975012;28;59384;-75
2023/08/23 06:18:16;;;;;;;1.43;1.00;;;;;;;;;;4959548;28;59888;-75
2023/08/23 06:20:43;;;;;;;2.63;1.00;;;;;;;;;;4978082;28;58415;-75
2023/08/23 06:23:08;;;;;;;1.05;0.77;;;;;;;;;;4960820;28;61330;-75
2023/08/23 06:25:33;;;;;;;1.53;1.03;;;;;;;;;;4976089;28;58887;-75
2023/08/23 06:27:58;;;;;;;0.90;0.60;;;;;;;;;;4974116;28;59125;-74
2023/08/23 06:30:23;;;;;;;2.40;0.97;;;;;;;;;;4975101;28;58417;-75
2023/08/23 06:32:49;;;;;;;2.33;0.80;;;;;;;;;;4974656;28;58330;-76
2023/08/23 06:35:15;;;;;;;2.10;1.38;;;;;;;;;;4973845;28;58721;-75
2023/08/23 06:37:40;;;;;;;1.30;0.90;;;;;;;;;;4975409;28;59189;-76
2023/08/23 06:40:06;;;;;;;0.65;0.65;;;;;;;;;;4973461;28;58411;-76
2023/08/23 06:42:31;;;;;;;1.40;1.30;;;;;;;;;;4975700;28;59808;-75
2023/08/23 06:44:56;;;;;;;0.50;0.50;;;;;;;;;;4977366;28;58479;-75
2023/08/23 06:47:21;;;;;;;1.97;0.90;;;;;;;;;;4975382;28;58551;-75
2023/08/23 06:49:46;;;;;;;2.03;0.70;;;;;;;;;;4972879;28;58432;-75
2023/08/23 06:52:12;;;;;;;2.23;0.80;;;;;;;;;;4978395;28;59327;-76
2023/08/23 06:54:37;;;;;;;2.17;0.80;;;;;;;;;;4973573;28;58752;-75
2023/08/23 06:57:02;;;;;;;0.80;0.60;;;;;;;;;;4976124;28;58493;-75
2023/08/23 06:59:27;;;;;;;2.97;0.73;;;;;;;;;;4977017;28;58417;-75
2023/08/23 07:01:52;;;;;;;1.58;1.00;;;;;;;;;;4975231;28;58451;-75
2023/08/23 07:04:17;;;;;;;1.47;1.37;;;;;;;;;;4975992;28;58599;-75
2023/08/23 07:06:43;;;;;;;0.93;0.93;;;;;;;;;;4975351;28;58251;-75
2023/08/23 07:09:10;;;;;;;0.77;0.70;;;;;;;;;;4975306;28;59943;-75
2023/08/23 07:11:35;;;;;;;1.40;1.00;;;;;;;;;;4975702;28;60215;-75
2023/08/23 07:14:00;;;;;;;1.43;0.67;;;;;;;;;;4973326;28;58537;-75
2023/08/23 07:16:25;;;;;;;0.82;0.63;;;;;;;;;;4974693;28;58774;-75
2023/08/23 07:18:51;;;;;;;0.90;0.90;;;;;;;;;;4974476;28;58406;-75
2023/08/23 07:21:16;;;;;;;0.63;0.60;;;;;;;;;;4960824;28;59349;-75
2023/08/23 07:23:41;;;;;;;0.57;0.57;;;;;;;;;;4974158;28;59333;-75
2023/08/23 07:26:06;;;;;;;1.27;1.10;;;;;;;;;;4972802;28;58304;-76
2023/08/23 07:28:31;;;;;;;0.80;0.40;;;;;;;;;;4975094;28;60069;-75
2023/08/23 07:30:57;;;;;;;0.67;0.67;;;;;;;;;;4975057;28;58533;-76
2023/08/23 07:33:25;;;;;;;1.20;0.47;;;;;;;;;;4976351;28;58538;-75
2023/08/23 07:35:58;;;;;;;0.63;0.63;;;;;;;;;;4975722;28;59248;-75
2023/08/23 07:38:23;;;;;;;1.83;0.77;;;;;;;;;;4975568;28;58560;-75
2023/08/23 07:40:48;;;;;;;0.50;0.50;;;;;;;;;;4975125;28;59604;-76
2023/08/23 07:43:13;;;;;;;0.50;0.50;;;;;;;;;;4974843;28;58565;-76
2023/08/23 07:45:38;;;;;;;0.73;0.73;;;;;;;;;;4974980;28;58437;-76
2023/08/23 07:48:04;;;;;;;1.08;0.50;;;;;;;;;;4976503;28;58395;-75
2023/08/23 07:50:29;;;;;;;1.27;0.88;;;;;;;;;;4975629;28;58811;-75
2023/08/23 07:52:54;;;;;;;0.53;0.50;;;;;;;;;;4973669;28;58421;-75
2023/08/23 07:55:20;;;;;;;0.30;0.30;;;;;;;;;;4973394;28;58846;-76
2023/08/23 07:57:45;;;;;;;0.43;0.43;;;;;;;;;;4975176;28;58462;-75
2023/08/23 08:00:10;;;;;;;0.50;0.50;;;;;;;;;;4960298;28;59341;-75
2023/08/23 08:02:35;;;;;;;0.57;0.57;;;;;;;;;;4975499;28;58911;-75
2023/08/23 08:05:01;;;;;;;0.60;0.50;;;;;;;;;;4972647;28;58359;-75
2023/08/23 08:07:28;;;;;;;2.37;0.73;;;;;;;;;;4975945;28;60214;-76
2023/08/23 08:09:53;;;;;;;1.52;0.73;;;;;;;;;;4970331;28;59088;-76
2023/08/23 08:12:18;;;;;;;2.27;1.07;;;;;;;;;;4975632;28;58040;-76
2023/08/23 08:14:43;;;;;;;0.65;0.65;;;;;;;;;;4972509;28;60224;-76
2023/08/23 08:17:08;;;;;;;0.50;0.50;;;;;;;;;;4977799;28;58759;-75
2023/08/23 08:19:33;;;;;;;1.83;0.70;;;;;;;;;;4974896;28;58780;-76
2023/08/23 08:21:59;;;;;;;0.40;0.40;;;;;;;;;;4957721;28;60230;-76
2023/08/23 08:24:26;;;;;;;0.87;0.87;;;;;;;;;;4974134;28;58317;-75
2023/08/23 08:26:51;;;;;;;0.50;0.50;;;;;;;;;;4973488;28;59250;-75
2023/08/23 08:29:16;;;;;;;0.50;0.43;;;;;;;;;;4973611;28;58550;-76
2023/08/23 08:31:42;;;;;;;0.60;0.60;;;;;;;;;;4973231;28;58384;-76
2023/08/23 08:34:08;;;;;;;0.87;0.60;;;;;;;;;;4974599;28;59478;-76
2023/08/23 08:36:33;;;;;;;0.90;0.90;;;;;;;;;;4970859;28;59384;-76
2023/08/23 08:38:58;;;;;;;0.80;0.80;;;;;;;;;;4957721;28;58476;-76
2023/08/23 08:41:24;;;;;;;0.90;0.70;;;;;;;;;;4967231;28;58387;-75
2023/08/23 08:43:49;;;;;;;0.60;0.57;;;;;;;;;;4973901;28;58390;-76
2023/08/23 08:46:15;;;;;;;1.10;0.93;;;;;;;;;;4975084;28;58503;-76
2023/08/23 08:48:40;;;;;;;0.60;0.60;;;;;;;;;;4974595;28;58363;-76
2023/08/23 08:51:07;;;;;;;0.47;0.47;;;;;;;;;;4972181;28;58590;-76
2023/08/23 08:53:33;;;;;;;1.27;0.82;;;;;;;;;;4974838;28;59265;-76
2023/08/23 08:55:58;;;;;;;0.88;0.70;;;;;;;;;;4974915;28;58991;-75
2023/08/23 08:58:25;;;;;;;0.52;0.52;;;;;;;;;;4971525;28;58679;-76
2023/08/23 09:00:52;;;;;;;2.25;0.40;;;;;;;;;;4974114;28;58636;-75
2023/08/23 09:03:18;;;;;;;1.23;0.68;;;;;;;;;;4973252;28;58381;-75
2023/08/23 09:05:45;;;;;;;1.17;0.85;;;;;;;;;;4970956;28;58666;-76
2023/08/23 09:08:10;;;;;;;0.52;0.52;;;;;;;;;;4972381;28;58471;-76
2023/08/23 09:10:35;;;;;;;0.50;0.50;;;;;;;;;;4974250;28;58505;-76
2023/08/23 09:13:01;;;;;;;0.53;0.50;;;;;;;;;;4971357;28;58601;-76
2023/08/23 09:15:26;;;;;;;0.60;0.60;;;;;;;;;;4972516;28;59055;-76
2023/08/23 09:17:52;;;;;;;0.85;0.50;;;;;;;;;;4975022;28;58442;-75
2023/08/23 09:20:19;;;;;;;0.50;0.50;;;;;;;;;;4975390;28;60531;-76
2023/08/23 09:22:48;;;;;;;1.02;0.75;;;;;;;;;;4973168;28;58383;-76
2023/08/23 09:25:14;;;;;;;0.50;0.35;;;;;;;;;;4969928;28;59156;-75
2023/08/23 09:27:39;;;;;;;0.50;0.50;;;;;;;;;;4971579;28;59232;-75
2023/08/23 09:30:05;;;;;;;1.07;0.50;;;;;;;;;;4978051;28;58363;-76
2023/08/23 09:32:30;;;;;;;0.52;0.43;;;;;;;;;;4977515;28;58642;-77
2023/08/23 09:34:56;;;;;;;0.93;0.60;;;;;;;;;;4976055;28;60439;-76
2023/08/23 09:37:21;;;;;;;0.40;0.38;;;;;;;;;;4973899;28;58422;-75
2023/08/23 09:39:46;;;;;;;1.17;1.00;;;;;;;;;;4979959;28;59215;-76
2023/08/23 09:42:14;;;;;;;0.50;0.50;;;;;;;;;;4973689;28;58677;-76
2023/08/23 09:44:40;;;;;;;0.98;0.80;;;;;;;;;;4980050;28;58465;-76
2023/08/23 09:47:08;;;;;;;0.35;0.35;;;;;;;;;;4974016;28;58466;-77
2023/08/23 09:49:34;;;;;;;0.45;0.45;;;;;;;;;;4974999;28;58424;-76
2023/08/23 09:52:00;;;;;;;0.38;0.38;;;;;;;;;;4974839;28;58547;-75
2023/08/23 09:54:34;;;;;;;0.30;0.30;;;;;;;;;;4976438;28;59827;-76
2023/08/23 09:56:59;;;;;;;0.40;0.40;;;;;;;;;;4979171;28;58303;-76
2023/08/23 09:59:24;;;;;;;0.35;0.35;;;;;;;;;;4976600;28;58908;-76
2023/08/23 10:01:50;;;;;;;1.20;0.50;;;;;;;;;;4972558;28;59171;-76
2023/08/23 10:04:16;;;;;;;0.50;0.50;;;;;;;;;;4977022;28;58350;-76
2023/08/23 10:06:42;;;;;;;0.50;0.35;;;;;;;;;;4974113;28;58478;-76
2023/08/23 10:09:08;;;;;;;0.55;0.52;;;;;;;;;;4976210;28;58421;-75
2023/08/23 10:11:33;;;;;;;0.90;0.90;;;;;;;;;;4978254;28;59295;-77
2023/08/23 10:14:00;;;;;;;0.50;0.50;;;;;;;;;;4959968;28;60160;-77
2023/08/23 10:16:26;;;;;;;1.00;1.00;;;;;;;;;;4972195;28;58431;-76
2023/08/23 10:18:52;;;;;;;0.93;0.47;;;;;;;;;;4977402;28;58454;-76
2023/08/23 10:21:17;;;;;;;0.57;0.30;;;;;;;;;;4973876;28;59010;-76
2023/08/23 10:23:42;;;;;;;0.47;0.47;;;;;;;;;;4976035;28;58367;-76
2023/08/23 10:26:16;;;;;;;0.88;0.85;;;;;;;;;;4977483;28;58572;-77
2023/08/23 10:28:51;;;;;;;0.70;0.50;;;;;;;;;;4976040;28;58673;-77
2023/08/23 10:31:21;;;;;;;0.70;0.65;;;;;;;;;;4976683;28;58533;-76
2023/08/23 10:33:52;;;;;;;0.40;0.40;;;;;;;;;;4974746;28;58425;-76
2023/08/23 10:36:20;;;;;;;0.85;0.40;;;;;;;;;;4977439;28;58507;-76
2023/08/23 10:38:46;;;;;;;0.40;0.40;;;;;;;;;;4974654;28;62931;-76
2023/08/23 10:41:16;;;;;;;0.50;0.50;;;;;;;;;;4976106;28;58450;-71
2023/08/23 10:43:42;;;;;;;0.95;0.40;;;;;;;;;;4975115;28;58319;-72
2023/08/23 10:46:08;;;;;;;0.55;0.50;;;;;;;;;;4972512;28;58847;-70
2023/08/23 10:48:33;;;;;;;0.55;0.55;;;;;;;;;;4955100;28;58432;-73
2023/08/23 10:50:59;;;;;;;0.47;0.40;;;;;;;;;;4975866;28;59475;-71
2023/08/23 10:53:24;;;;;;;0.35;0.35;;;;;;;;;;4973887;28;58754;-70
2023/08/23 10:55:50;;;;;;;0.47;0.45;;;;;;;;;;4979068;28;58445;-73
2023/08/23 10:58:16;;;;;;;1.27;0.60;;;;;;;;;;4955212;28;60212;-71
2023/08/23 11:00:42;;;;;;;0.55;0.40;;;;;;;;;;4973159;28;58487;-71
2023/08/23 11:03:07;;;;;;;0.45;0.40;;;;;;;;;;4975834;28;58471;-72
2023/08/23 11:05:33;;;;;;;0.80;0.52;;;;;;;;;;4974337;28;59442;-72
2023/08/23 11:07:59;;;;;;;0.50;0.50;;;;;;;;;;4971888;28;59072;-71
2023/08/23 11:10:25;;;;;;;0.80;0.70;;;;;;;;;;4977558;28;58511;-71
2023/08/23 11:12:50;;;;;;;0.98;0.57;;;;;;;;;;4973239;28;59389;-70
2023/08/23 11:15:15;;;;;;;0.67;0.67;;;;;;;;;;4973277;28;58384;-70
2023/08/23 11:17:41;;;;;;;1.00;0.90;;;;;;;;;;4975506;28;58707;-71
2023/08/23 11:20:06;;;;;;;1.23;0.40;;;;;;;;;;4958818;28;59865;-71
2023/08/23 11:22:31;;;;;;;0.50;0.50;;;;;;;;;;4975081;28;58430;-71
2023/08/23 11:24:57;;;;;;;0.60;0.50;;;;;;;;;;4969704;28;59251;-72
2023/08/23 11:27:22;;;;;;;0.50;0.50;;;;;;;;;;4972891;28;58523;-70
2023/08/23 11:29:47;;;;;;;0.50;0.50;;;;;;;;;;4974786;28;58417;-70
2023/08/23 11:32:13;;;;;;;0.63;0.63;;;;;;;;;;4958103;28;59439;-72
2023/08/23 11:34:38;;;;;;;0.50;0.50;;;;;;;;;;4974397;28;58531;-70
2023/08/23 11:37:07;;;;;;;1.20;0.60;;;;;;;;;;4973912;28;61241;-71
2023/08/23 11:39:32;;;;;;;0.47;0.47;;;;;;;;;;4975341;28;58821;-71
2023/08/23 11:41:58;;;;;;;0.70;0.60;;;;;;;;;;4978399;28;58323;-71
2023/08/23 11:44:23;;;;;;;0.50;0.50;;;;;;;;;;4976887;28;58419;-71
2023/08/23 11:46:48;;;;;;;0.70;0.70;;;;;;;;;;4971985;28;58671;-71
2023/08/23 11:49:15;;;;;;;0.30;0.30;;;;;;;;;;4973911;28;58576;-72
2023/08/23 11:51:44;;;;;;;0.40;0.40;;;;;;;;;;4976092;28;58832;-76
2023/08/23 11:54:09;;;;;;;;;;;;;;;;;;4973169;28;58421;-75
2023/08/23 11:56:34;;;;;;;0.40;0.40;;;;;;;;;;4977256;28;60475;-76
2023/08/23 11:58:59;;;;;;;0.43;0.43;;;;;;;;;;4974335;28;58608;-76
2023/08/23 12:01:24;;;;;;;0.57;0.57;;;;;;;;;;4972947;28;58342;-75
2023/08/23 12:03:50;;;;;;;0.73;0.47;;;;;;;;;;4974428;28;60202;-76
2023/08/23 12:06:15;;;;;;;0.73;0.60;;;;;;;;;;4975299;28;58439;-76
2023/08/23 12:08:40;;;;;;;0.30;0.30;;;;;;;;;;4975868;28;58509;-77
2023/08/23 12:11:05;;;;;;;0.80;0.50;;;;;;;;;;4974445;28;58818;-75
2023/08/23 12:13:31;;;;;;;0.67;0.53;;;;;;;;;;4977807;28;59171;-75
2023/08/23 12:15:56;;;;;;;0.50;0.50;;;;;;;;;;4975493;28;59253;-76
2023/08/23 12:18:22;;;;;;;0.70;0.70;;;;;;;;;;4970504;28;59912;-75
2023/08/23 12:20:47;;;;;;;0.30;0.30;;;;;;;;;;4973633;28;58314;-76
2023/08/23 12:23:12;;;;;;;0.33;0.33;;;;;;;;;;4973502;28;59540;-75
2023/08/23 12:25:38;;;;;;;0.40;0.40;;;;;;;;;;4970561;28;58339;-76
2023/08/23 12:28:03;;;;;;;0.50;0.50;;;;;;;;;;4955485;28;58348;-75
2023/08/23 12:30:30;;;;;;;0.70;0.60;;;;;;;;;;4972186;28;58465;-76
2023/08/23 12:32:55;;;;;;;0.40;0.40;;;;;;;;;;4975959;28;59327;-75
2023/08/23 12:35:20;;;;;;;0.50;0.50;;;;;;;;;;4974756;28;58496;-75
2023/08/23 12:37:45;;;;;;;0.50;0.50;;;;;;;;;;4973606;28;58868;-75
2023/08/23 12:40:11;;;;;;;0.45;0.45;;;;;;;;;;4973988;28;58552;-76
2023/08/23 12:42:36;;;;;;;0.65;0.30;;;;;;;;;;4975983;28;61200;-75
2023/08/23 12:45:01;;;;;;;0.50;0.50;;;;;;;;;;4974095;28;58588;-76
2023/08/23 12:47:26;;;;;;;0.60;0.50;;;;;;;;;;4974250;28;58370;-75
2023/08/23 12:49:52;;;;;;;0.47;0.47;;;;;;;;;;4976960;28;59374;-76
2023/08/23 12:52:17;;;;;;;0.40;0.40;;;;;;;;;;4973268;28;59860;-76
2023/08/23 12:54:42;;;;;;;0.40;0.40;;;;;;;;;;4973140;28;58356;-75
2023/08/23 12:57:07;;;;;;;1.58;1.15;;;;;;;;;;4972719;28;59378;-76
2023/08/23 12:59:32;;;;;;;1.75;0.40;;;;;;;;;;4972296;28;58462;-75
2023/08/23 13:01:58;;;;;;;0.75;0.75;;;;;;;;;;4974271;28;58494;-76
2023/08/23 13:04:23;;;;;;;0.43;0.43;;;;;;;;;;4956620;28;58753;-75
2023/08/23 13:06:48;;;;;;;0.47;0.47;;;;;;;;;;4971588;28;58318;-75
2023/08/23 13:09:14;;;;;;;0.70;0.70;;;;;;;;;;4975234;28;59283;-76
2023/08/23 13:11:39;;;;;;;1.17;0.60;;;;;;;;;;4974492;28;58761;-76
2023/08/23 13:14:04;;;;;;;0.40;0.40;;;;;;;;;;4974030;28;58216;-76
2023/08/23 13:16:29;;;;;;;0.30;0.30;;;;;;;;;;4973121;28;59448;-76
2023/08/23 13:18:54;;;;;;;0.40;0.40;;;;;;;;;;4975413;28;58466;-76
2023/08/23 13:21:19;;;;;;;0.93;0.50;;;;;;;;;;4972565;28;58882;-76
2023/08/23 13:23:45;;;;;;;0.88;0.85;;;;;;;;;;4974500;28;58727;-75
2023/08/23 13:26:10;;;;;;;0.57;0.50;;;;;;;;;;4973080;28;58283;-76
2023/08/23 13:28:35;;;;;;;0.60;0.60;;;;;;;;;;4974673;28;59578;-76
2023/08/23 13:31:01;;;;;;;0.43;0.43;;;;;;;;;;4973404;28;58497;-75
2023/08/23 13:33:26;;;;;;;0.40;0.40;;;;;;;;;;4974723;28;58612;-76
2023/08/23 13:35:51;;;;;;;0.90;0.70;;;;;;;;;;4975121;28;59232;-75
2023/08/23 13:38:16;;;;;;;0.30;0.20;;;;;;;;;;4973228;28;59786;-76
2023/08/23 13:40:41;;;;;;;0.90;0.63;;;;;;;;;;4974320;28;58323;-75
2023/08/23 13:43:06;;;;;;;0.40;0.40;;;;;;;;;;4972948;28;60158;-75
2023/08/23 13:45:32;;;;;;;0.80;0.70;;;;;;;;;;4973802;28;58346;-76
2023/08/23 13:47:57;;;;;;;0.93;0.80;;;;;;;;;;4973414;28;59702;-76
2023/08/23 13:50:22;;;;;;;1.00;0.90;;;;;;;;;;4971925;28;58418;-76
2023/08/23 13:52:47;;;;;;;0.40;0.40;;;;;;;;;;4974570;28;58620;-75
2023/08/23 13:55:13;;;;;;;0.52;0.52;;;;;;;;;;4975380;28;58444;-76
2023/08/23 13:57:38;;;;;;;0.40;0.40;;;;;;;;;;4973248;28;59078;-76
2023/08/23 14:00:04;;;;;;;0.50;0.50;;;;;;;;;;4972878;28;58229;-76
2023/08/23 14:02:29;;;;;;;0.47;0.47;;;;;;;;;;4974128;28;59485;-76
2023/08/23 14:04:55;;;;;;;0.50;0.50;;;;;;;;;;4973772;28;58705;-76
2023/08/23 14:07:20;;;;;;;0.70;0.68;;;;;;;;;;4972446;28;58791;-76
2023/08/23 14:09:45;;;;;;;0.83;0.60;;;;;;;;;;4973322;28;60020;-75
2023/08/23 14:12:10;;;;;;;0.40;0.40;;;;;;;;;;4977891;28;58568;-72
2023/08/23 14:14:35;;;;;;;0.68;0.50;;;;;;;;;;4973564;28;59940;-72
2023/08/23 14:17:00;;;;;;;0.67;0.50;;;;;;;;;;4977858;28;59081;-72
2023/08/23 14:19:29;;;;;;;1.05;0.68;;;;;;;;;;4979951;28;58096;-74
2023/08/23 14:21:54;;;;;;;0.55;0.55;;;;;;;;;;4976992;28;59647;-72
2023/08/23 14:24:19;;;;;;;1.25;0.70;;;;;;;;;;4978294;28;58334;-73
2023/08/23 14:26:44;;;;;;;0.45;0.40;;;;;;;;;;4978656;28;58683;-71
2023/08/23 14:29:09;;;;;;;2.40;0.90;;;;;;;;;;4973045;28;58546;-73
2023/08/23 14:31:35;;;;;;;0.90;0.70;;;;;;;;;;4976139;28;58363;-72
2023/08/23 14:34:00;;;;;;;0.83;0.70;;;;;;;;;;4975717;28;59823;-71